createdAt,value
2019-05-20T00:00:33.101Z,8.20
2019-05-20T00:01:33.098Z,7.90
2019-05-20T00:02:33.098Z,8.70
2019-05-20T00:03:33.096Z,7.90
2019-05-20T00:04:33.098Z,8.60
2019-05-20T00:05:33.141Z,8.40
2019-05-20T00:06:33.092Z,7.80
2019-05-20T00:07:33.089Z,8.60
2019-05-20T00:08:33.087Z,7.40
2019-05-20T00:09:33.084Z,7.70
2019-05-20T00:10:33.086Z,8.10
2019-05-20T00:11:33.082Z,8.80
2019-05-20T00:12:33.082Z,8.80
2019-05-20T00:13:33.083Z,8.40
2019-05-20T00:14:33.076Z,8.90
2019-05-20T00:15:33.075Z,8.40
2019-05-20T00:16:33.072Z,8.50
2019-05-20T00:17:33.074Z,8.30
2019-05-20T00:18:33.077Z,8.40
2019-05-20T00:19:33.067Z,8.50
2019-05-20T00:20:33.077Z,8.50
2019-05-20T00:21:33.072Z,8.00
2019-05-20T00:22:33.061Z,9.10
2019-05-20T00:23:33.063Z,8.70
2019-05-20T00:24:33.059Z,9.60
2019-05-20T00:25:33.058Z,9.00
2019-05-20T00:26:33.056Z,8.20
2019-05-20T00:27:33.054Z,8.30
2019-05-20T00:28:33.051Z,9.10
2019-05-20T00:29:33.050Z,9.20
2019-05-20T00:30:33.055Z,7.90
2019-05-20T00:31:33.048Z,8.80
2019-05-20T00:32:40.961Z,8.30
2019-05-20T00:33:33.043Z,8.90
2019-05-20T00:34:35.579Z,9.30
2019-05-20T00:35:33.042Z,10.00
2019-05-20T00:36:33.061Z,10.00
2019-05-20T00:37:33.036Z,8.80
2019-05-20T00:38:33.033Z,9.30
2019-05-20T00:39:33.033Z,8.60
2019-05-20T00:40:33.031Z,9.40
2019-05-20T00:41:33.030Z,9.20
2019-05-20T00:42:33.026Z,8.90
2019-05-20T00:43:33.039Z,10.00
2019-05-20T00:44:33.024Z,10.00
2019-05-20T00:45:33.027Z,9.90
2019-05-20T00:46:33.021Z,9.90
2019-05-20T00:47:33.021Z,10.40
2019-05-20T00:48:33.019Z,9.20
2019-05-20T00:49:33.016Z,9.30
2019-05-20T00:50:33.014Z,10.10
2019-05-20T00:51:33.013Z,9.90
2019-05-20T00:52:33.011Z,10.60
2019-05-20T00:53:33.009Z,10.50
2019-05-20T00:54:33.007Z,9.90
2019-05-20T00:55:33.006Z,10.20
2019-05-20T00:56:33.006Z,10.40
2019-05-20T00:57:33.004Z,10.90
2019-05-20T00:58:33.000Z,9.70
2019-05-20T00:59:32.999Z,9.60
2019-05-20T01:00:32.997Z,9.70
2019-05-20T01:01:32.996Z,9.90
2019-05-20T01:02:32.994Z,9.80
2019-05-20T01:03:32.993Z,9.30
2019-05-20T01:04:32.992Z,10.30
2019-05-20T01:05:32.996Z,10.60
2019-05-20T01:06:32.988Z,10.30
2019-05-20T01:07:32.985Z,10.60
2019-05-20T01:08:32.983Z,10.40
2019-05-20T01:09:32.983Z,9.80
2019-05-20T01:10:32.981Z,10.80
2019-05-20T01:11:32.978Z,10.10
2019-05-20T01:12:32.978Z,11.40
2019-05-20T01:13:32.979Z,11.10
2019-05-20T01:14:32.975Z,10.60
2019-05-20T01:15:32.973Z,10.80
2019-05-20T01:16:32.969Z,11.20
2019-05-20T01:17:32.967Z,10.60
2019-05-20T01:18:32.964Z,10.30
2019-05-20T01:19:32.971Z,11.00
2019-05-20T01:20:32.962Z,11.00
2019-05-20T01:21:32.962Z,10.80
2019-05-20T01:22:32.957Z,11.10
2019-05-20T01:23:32.956Z,10.40
2019-05-20T01:24:32.966Z,11.00
2019-05-20T01:25:32.951Z,10.80
2019-05-20T01:26:32.953Z,9.40
2019-05-20T01:27:32.948Z,10.50
2019-05-20T01:28:32.946Z,11.50
2019-05-20T01:29:32.947Z,10.60
2019-05-20T01:30:32.941Z,10.60
2019-05-20T01:31:32.939Z,9.80
2019-05-20T01:32:32.938Z,10.20
2019-05-20T01:33:32.937Z,10.70
2019-05-20T01:34:32.933Z,11.10
2019-05-20T01:35:32.930Z,10.70
2019-05-20T01:36:32.946Z,11.30
2019-05-20T01:37:32.928Z,11.00
2019-05-20T01:38:32.926Z,12.40
2019-05-20T01:39:32.953Z,11.20
2019-05-20T01:40:32.919Z,11.70
2019-05-20T01:41:32.919Z,11.40
2019-05-20T01:42:32.917Z,11.70
2019-05-20T01:43:32.913Z,12.70
2019-05-20T01:44:32.914Z,12.00
2019-05-20T01:45:32.910Z,10.50
2019-05-20T01:46:32.910Z,12.10
2019-05-20T01:47:32.905Z,11.40
2019-05-20T01:48:32.902Z,12.60
2019-05-20T01:49:32.904Z,11.90
2019-05-20T01:50:32.900Z,11.50
2019-05-20T01:51:32.898Z,11.00
2019-05-20T01:52:32.896Z,10.00
2019-05-20T01:53:32.896Z,10.40
2019-05-20T01:54:32.892Z,9.60
2019-05-20T01:55:32.891Z,10.30
2019-05-20T01:56:32.886Z,10.10
2019-05-20T01:57:32.886Z,10.80
2019-05-20T01:58:32.880Z,10.10
2019-05-20T01:59:32.880Z,10.20
2019-05-20T02:00:32.885Z,9.30
2019-05-20T02:01:32.875Z,10.90
2019-05-20T02:02:32.870Z,10.50
2019-05-20T02:03:32.874Z,10.10
2019-05-20T02:04:32.869Z,10.10
2019-05-20T02:05:32.865Z,10.60
2019-05-20T02:06:32.861Z,10.70
2019-05-20T02:07:32.858Z,11.50
2019-05-20T02:08:32.857Z,10.80
2019-05-20T02:09:32.858Z,10.80
2019-05-20T02:10:32.852Z,12.20
2019-05-20T02:11:32.875Z,10.80
2019-05-20T02:12:32.846Z,11.30
2019-05-20T02:13:32.845Z,12.20
2019-05-20T02:14:32.842Z,11.20
2019-05-20T02:15:32.842Z,12.10
2019-05-20T02:16:32.838Z,11.80
2019-05-20T02:17:32.834Z,11.30
2019-05-20T02:18:32.841Z,11.50
2019-05-20T02:19:32.830Z,13.10
2019-05-20T02:20:32.831Z,12.20
2019-05-20T02:21:32.825Z,12.80
2019-05-20T02:22:32.822Z,13.00
2019-05-20T02:23:32.820Z,12.40
2019-05-20T02:24:32.818Z,12.20
2019-05-20T02:25:32.834Z,12.40
2019-05-20T02:26:32.811Z,13.70
2019-05-20T02:27:32.810Z,13.70
2019-05-20T02:28:32.809Z,12.80
2019-05-20T02:29:32.807Z,13.50
2019-05-20T02:30:32.803Z,13.20
2019-05-20T02:31:32.806Z,13.90
2019-05-20T02:32:32.798Z,14.20
2019-05-20T02:33:49.923Z,14.20
2019-05-20T02:34:32.791Z,14.40
2019-05-20T02:35:32.790Z,14.00
2019-05-20T02:36:32.786Z,13.90
2019-05-20T02:37:32.784Z,13.90
2019-05-20T02:38:32.778Z,15.10
2019-05-20T02:39:32.778Z,13.80
2019-05-20T02:40:32.779Z,14.60
2019-05-20T02:41:32.772Z,13.70
2019-05-20T02:42:32.844Z,15.40
2019-05-20T02:43:32.771Z,15.30
2019-05-20T02:44:32.827Z,15.30
2019-05-20T02:45:32.763Z,14.60
2019-05-20T02:46:32.759Z,14.70
2019-05-20T02:47:32.756Z,16.10
2019-05-20T02:48:32.753Z,15.00
2019-05-20T02:49:32.752Z,15.40
2019-05-20T02:50:32.747Z,16.60
2019-05-20T02:51:32.745Z,16.20
2019-05-20T02:52:32.743Z,16.50
2019-05-20T02:53:32.741Z,16.80
2019-05-20T02:54:32.736Z,17.70
2019-05-20T02:55:32.735Z,16.50
2019-05-20T02:56:32.764Z,16.90
2019-05-20T02:57:32.731Z,16.20
2019-05-20T02:58:32.726Z,18.00
2019-05-20T02:59:32.729Z,17.80
2019-05-20T03:00:32.720Z,17.70
2019-05-20T03:01:32.716Z,17.20
2019-05-20T03:02:32.733Z,16.60
2019-05-20T03:03:32.714Z,16.90
2019-05-20T03:04:32.710Z,17.10
2019-05-20T03:05:32.737Z,17.40
2019-05-20T03:06:32.709Z,19.00
2019-05-20T03:07:32.701Z,17.50
2019-05-20T03:08:32.705Z,17.20
2019-05-20T03:09:32.714Z,18.40
2019-05-20T03:10:32.693Z,18.60
2019-05-20T03:11:32.690Z,17.30
2019-05-20T03:12:32.702Z,18.00
2019-05-20T03:13:32.684Z,18.00
2019-05-20T03:14:32.689Z,17.60
2019-05-20T03:15:32.679Z,18.20
2019-05-20T03:16:32.692Z,17.90
2019-05-20T03:17:32.673Z,17.70
2019-05-20T03:18:32.671Z,17.50
2019-05-20T03:19:32.667Z,18.90
2019-05-20T03:20:32.670Z,18.80
2019-05-20T03:21:32.662Z,17.80
2019-05-20T03:22:32.660Z,18.90
2019-05-20T03:23:32.656Z,18.90
2019-05-20T03:24:32.654Z,18.20
2019-05-20T03:25:32.651Z,19.00
2019-05-20T03:26:32.657Z,18.70
2019-05-20T03:27:32.645Z,17.80
2019-05-20T03:28:32.648Z,18.40
2019-05-20T03:29:32.643Z,18.90
2019-05-20T03:30:32.638Z,17.40
2019-05-20T03:31:32.635Z,17.30
2019-05-20T03:32:32.634Z,18.20
2019-05-20T03:33:32.631Z,18.00
2019-05-20T03:34:47.583Z,17.90
2019-05-20T03:35:32.624Z,18.30
2019-05-20T03:36:32.623Z,17.80
2019-05-20T03:37:32.619Z,18.00
2019-05-20T03:38:32.617Z,17.50
2019-05-20T03:39:32.613Z,19.10
2019-05-20T03:40:32.614Z,18.00
2019-05-20T03:41:32.611Z,17.70
2019-05-20T03:42:32.604Z,18.00
2019-05-20T03:43:32.601Z,17.00
2019-05-20T03:44:32.600Z,18.10
2019-05-20T03:45:32.605Z,18.50
2019-05-20T03:46:32.599Z,17.80
2019-05-20T03:47:32.591Z,18.00
2019-05-20T03:48:32.590Z,18.20
2019-05-20T03:49:32.588Z,18.60
2019-05-20T03:50:32.584Z,18.60
2019-05-20T03:51:32.585Z,19.10
2019-05-20T03:52:32.578Z,17.80
2019-05-20T03:53:32.579Z,18.20
2019-05-20T03:54:32.574Z,18.60
2019-05-20T03:55:32.571Z,19.60
2019-05-20T03:56:32.579Z,18.70
2019-05-20T03:57:32.565Z,18.00
2019-05-20T03:58:32.562Z,18.50
2019-05-20T03:59:32.559Z,19.50
2019-05-20T04:00:32.559Z,19.80
2019-05-20T04:01:32.555Z,19.70
2019-05-20T04:02:32.553Z,18.10
2019-05-20T04:03:32.549Z,19.40
2019-05-20T04:04:32.566Z,18.20
2019-05-20T04:05:32.545Z,19.30
2019-05-20T04:06:32.543Z,18.40
2019-05-20T04:07:32.549Z,18.70
2019-05-20T04:08:32.567Z,19.70
2019-05-20T04:09:32.536Z,18.50
2019-05-20T04:10:32.532Z,18.80
2019-05-20T04:11:32.538Z,19.20
2019-05-20T04:12:32.530Z,19.00
2019-05-20T04:13:34.911Z,19.00
2019-05-20T04:14:32.523Z,19.00
2019-05-20T04:15:32.521Z,19.90
2019-05-20T04:16:32.518Z,20.70
2019-05-20T04:17:32.515Z,19.70
2019-05-20T04:18:32.517Z,19.20
2019-05-20T04:19:32.511Z,19.30
2019-05-20T04:20:32.509Z,18.80
2019-05-20T04:21:32.505Z,20.60
2019-05-20T04:22:32.503Z,20.90
2019-05-20T04:23:32.501Z,19.90
2019-05-20T04:24:32.530Z,19.70
2019-05-20T04:25:32.496Z,19.40
2019-05-20T04:26:32.491Z,20.00
2019-05-20T04:27:32.493Z,20.40
2019-05-20T04:28:32.491Z,19.30
2019-05-20T04:29:32.529Z,19.80
2019-05-20T04:30:32.483Z,21.00
2019-05-20T04:31:32.480Z,19.10
2019-05-20T04:32:32.481Z,20.00
2019-05-20T04:33:32.482Z,20.40
2019-05-20T04:34:32.480Z,20.50
2019-05-20T04:35:32.472Z,20.80
2019-05-20T04:36:32.470Z,20.60
2019-05-20T04:37:32.470Z,19.70
2019-05-20T04:38:32.467Z,21.60
2019-05-20T04:39:32.466Z,20.70
2019-05-20T04:40:32.470Z,20.30
2019-05-20T04:41:35.455Z,23.20
2019-05-20T04:42:32.458Z,20.10
2019-05-20T04:43:32.455Z,20.40
2019-05-20T04:44:32.454Z,21.90
2019-05-20T04:45:32.450Z,21.20
2019-05-20T04:46:32.455Z,22.30
2019-05-20T04:47:32.449Z,19.30
2019-05-20T04:48:32.449Z,21.70
2019-05-20T04:49:32.443Z,20.90
2019-05-20T04:50:32.440Z,21.70
2019-05-20T04:51:32.440Z,21.50
2019-05-20T04:52:32.440Z,21.60
2019-05-20T04:53:32.439Z,21.20
2019-05-20T04:54:32.444Z,22.20
2019-05-20T04:55:32.437Z,22.10
2019-05-20T04:56:32.434Z,22.30
2019-05-20T04:57:32.431Z,21.50
2019-05-20T04:58:32.434Z,21.20
2019-05-20T04:59:32.450Z,22.50
2019-05-20T05:00:32.430Z,22.20
2019-05-20T05:01:32.420Z,22.90
2019-05-20T05:02:32.419Z,20.20
2019-05-20T05:03:32.425Z,21.80
2019-05-20T05:04:32.422Z,22.90
2019-05-20T05:05:37.830Z,22.30
2019-05-20T05:06:32.409Z,21.40
2019-05-20T05:07:32.408Z,21.50
2019-05-20T05:08:32.408Z,21.50
2019-05-20T05:09:32.404Z,21.50
2019-05-20T05:10:32.401Z,21.80
2019-05-20T05:11:32.401Z,22.50
2019-05-20T05:12:32.399Z,21.90
2019-05-20T05:13:32.400Z,20.40
2019-05-20T05:14:32.396Z,22.20
2019-05-20T05:15:32.391Z,21.00
2019-05-20T05:16:32.395Z,21.70
2019-05-20T05:17:32.388Z,21.70
2019-05-20T05:18:32.387Z,20.90
2019-05-20T05:19:32.385Z,22.00
2019-05-20T05:20:32.383Z,22.60
2019-05-20T05:21:32.382Z,21.30
2019-05-20T05:22:32.380Z,19.70
2019-05-20T05:23:32.381Z,20.20
2019-05-20T05:24:32.376Z,21.90
2019-05-20T05:25:32.376Z,20.60
2019-05-20T05:26:32.372Z,20.10
2019-05-20T05:27:32.375Z,22.20
2019-05-20T05:28:32.373Z,22.10
2019-05-20T05:29:32.368Z,22.50
2019-05-20T05:30:32.368Z,21.10
2019-05-20T05:31:32.365Z,20.30
2019-05-20T05:32:32.362Z,21.90
2019-05-20T05:33:32.359Z,22.10
2019-05-20T05:34:32.356Z,20.30
2019-05-20T05:35:32.354Z,21.50
2019-05-20T05:36:32.354Z,22.50
2019-05-20T05:37:32.357Z,21.10
2019-05-20T05:38:32.349Z,21.30
2019-05-20T05:39:32.347Z,21.30
2019-05-20T05:40:32.348Z,20.70
2019-05-20T05:41:32.408Z,22.10
2019-05-20T05:42:32.343Z,20.00
2019-05-20T05:43:32.341Z,22.10
2019-05-20T05:44:32.339Z,22.40
2019-05-20T05:45:32.415Z,21.90
2019-05-20T05:46:32.338Z,21.70
2019-05-20T05:47:32.334Z,22.70
2019-05-20T05:48:32.333Z,21.90
2019-05-20T05:49:32.330Z,22.30
2019-05-20T05:50:32.335Z,22.90
2019-05-20T05:51:32.327Z,20.60
2019-05-20T05:52:32.333Z,20.20
2019-05-20T05:53:32.324Z,23.30
2019-05-20T05:54:32.324Z,23.00
2019-05-20T05:55:32.318Z,21.90
2019-05-20T05:56:32.317Z,21.80
2019-05-20T05:57:32.317Z,22.00
2019-05-20T05:58:32.315Z,21.30
2019-05-20T05:59:32.315Z,21.60
2019-05-20T06:00:32.312Z,21.30
2019-05-20T06:01:32.310Z,19.10
2019-05-20T06:02:32.315Z,20.40
2019-05-20T06:03:32.308Z,19.70
2019-05-20T06:04:32.308Z,21.10
2019-05-20T06:05:32.302Z,19.30
2019-05-20T06:06:32.300Z,19.50
2019-05-20T06:07:32.299Z,18.80
2019-05-20T06:08:32.296Z,19.60
2019-05-20T06:09:32.299Z,19.10
2019-05-20T06:10:35.540Z,18.60
2019-05-20T06:11:32.292Z,19.80
2019-05-20T06:12:32.292Z,19.50
2019-05-20T06:13:32.288Z,19.60
2019-05-20T06:14:32.291Z,18.70
2019-05-20T06:15:32.286Z,19.30
2019-05-20T06:16:36.526Z,19.60
2019-05-20T06:17:32.284Z,20.60
2019-05-20T06:18:32.283Z,20.50
2019-05-20T06:19:32.279Z,19.00
2019-05-20T06:20:32.278Z,19.50
2019-05-20T06:21:32.278Z,20.90
2019-05-20T06:22:32.275Z,20.60
2019-05-20T06:23:32.274Z,20.20
2019-05-20T06:24:32.272Z,19.00
2019-05-20T06:25:32.277Z,21.10
2019-05-20T06:26:32.268Z,20.20
2019-05-20T06:27:32.266Z,17.80
2019-05-20T06:28:32.267Z,21.30
2019-05-20T06:29:32.265Z,20.70
2019-05-20T06:30:32.263Z,20.00
2019-05-20T06:31:32.280Z,19.80
2019-05-20T06:32:32.263Z,19.40
2019-05-20T06:33:32.259Z,19.60
2019-05-20T06:34:32.319Z,19.40
2019-05-20T06:35:32.255Z,20.60
2019-05-20T06:36:32.254Z,20.20
2019-05-20T06:37:32.260Z,21.40
2019-05-20T06:38:32.251Z,19.90
2019-05-20T06:39:32.248Z,18.80
2019-05-20T06:40:32.248Z,19.20
2019-05-20T06:41:32.246Z,20.40
2019-05-20T06:42:32.246Z,18.90
2019-05-20T06:43:32.242Z,20.50
2019-05-20T06:44:32.241Z,18.50
2019-05-20T06:45:32.240Z,19.60
2019-05-20T06:46:32.237Z,18.60
2019-05-20T06:47:32.236Z,18.50
2019-05-20T06:48:32.235Z,18.60
2019-05-20T06:49:32.237Z,19.50
2019-05-20T06:50:32.230Z,19.80
2019-05-20T06:51:32.229Z,19.30
2019-05-20T06:52:35.987Z,18.60
2019-05-20T06:53:32.231Z,18.70
2019-05-20T06:54:32.228Z,18.20
2019-05-20T06:55:32.222Z,18.90
2019-05-20T06:56:32.232Z,17.90
2019-05-20T06:57:32.220Z,19.00
2019-05-20T06:58:32.222Z,18.80
2019-05-20T06:59:32.219Z,18.90
2019-05-20T07:00:32.217Z,17.30
2019-05-20T07:01:32.215Z,18.50
2019-05-20T07:02:32.212Z,18.80
2019-05-20T07:03:32.213Z,17.80
2019-05-20T07:04:32.212Z,19.20
2019-05-20T07:05:32.212Z,19.30
2019-05-20T07:06:46.065Z,18.20
2019-05-20T07:07:32.205Z,19.20
2019-05-20T07:08:32.213Z,17.90
2019-05-20T07:09:32.204Z,17.90
2019-05-20T07:10:32.202Z,19.40
2019-05-20T07:11:32.200Z,19.10
2019-05-20T07:12:40.534Z,18.20
2019-05-20T07:13:32.200Z,17.50
2019-05-20T07:14:32.210Z,18.80
2019-05-20T07:15:32.199Z,18.50
2019-05-20T07:16:32.194Z,18.80
2019-05-20T07:17:32.193Z,18.30
2019-05-20T07:18:32.199Z,19.00
2019-05-20T07:19:32.191Z,18.50
2019-05-20T07:20:32.190Z,17.50
2019-05-20T07:21:32.188Z,16.90
2019-05-20T07:22:32.188Z,17.20
2019-05-20T07:23:32.185Z,16.60
2019-05-20T07:24:32.184Z,17.20
2019-05-20T07:25:32.204Z,17.70
2019-05-20T07:26:32.184Z,17.20
2019-05-20T07:27:32.182Z,17.70
2019-05-20T07:28:32.183Z,17.60
2019-05-20T07:29:32.180Z,17.20
2019-05-20T07:30:32.185Z,18.20
2019-05-20T07:31:32.177Z,16.10
2019-05-20T07:32:32.195Z,17.50
2019-05-20T07:33:32.178Z,17.10
2019-05-20T07:34:32.176Z,16.50
2019-05-20T07:35:32.179Z,17.90
2019-05-20T07:36:32.178Z,16.20
2019-05-20T07:37:32.334Z,17.40
2019-05-20T07:38:32.172Z,17.80
2019-05-20T07:39:32.218Z,17.50
2019-05-20T07:40:32.175Z,16.00
2019-05-20T07:41:32.174Z,16.40
2019-05-20T07:42:32.171Z,17.20
2019-05-20T07:43:32.171Z,16.40
2019-05-20T07:44:32.183Z,15.20
2019-05-20T07:45:32.176Z,15.90
2019-05-20T07:46:32.169Z,17.80
2019-05-20T07:47:32.170Z,16.30
2019-05-20T07:48:32.828Z,17.60
2019-05-20T07:49:32.167Z,15.60
2019-05-20T07:50:32.167Z,15.60
2019-05-20T07:51:32.167Z,17.20
2019-05-20T07:52:32.167Z,16.60
2019-05-20T07:53:32.208Z,16.60
2019-05-20T07:54:32.167Z,17.80
2019-05-20T07:55:32.170Z,15.70
2019-05-20T07:56:32.166Z,16.80
2019-05-20T07:57:32.167Z,16.20
2019-05-20T07:58:33.669Z,15.80
2019-05-20T07:59:32.165Z,15.50
2019-05-20T08:00:32.166Z,15.60
2019-05-20T08:01:32.187Z,16.20
2019-05-20T08:02:32.164Z,15.50
2019-05-20T08:03:32.167Z,15.70
2019-05-20T08:04:32.223Z,15.60
2019-05-20T08:05:32.164Z,14.90
2019-05-20T08:06:32.172Z,15.20
2019-05-20T08:07:50.262Z,14.60
2019-05-20T08:08:32.163Z,15.70
2019-05-20T08:09:32.189Z,14.20
2019-05-20T08:10:32.161Z,15.30
2019-05-20T08:11:32.167Z,15.10
2019-05-20T08:12:32.167Z,14.10
2019-05-20T08:13:32.161Z,14.80
2019-05-20T08:14:32.160Z,14.00
2019-05-20T08:15:32.161Z,15.10
2019-05-20T08:16:32.164Z,15.50
2019-05-20T08:17:32.160Z,16.20
2019-05-20T08:18:32.165Z,16.20
2019-05-20T08:19:32.161Z,15.20
2019-05-20T08:20:32.167Z,15.80
2019-05-20T08:21:32.161Z,15.20
2019-05-20T08:22:32.158Z,15.50
2019-05-20T08:23:32.185Z,15.70
2019-05-20T08:24:32.160Z,16.10
2019-05-20T08:25:32.162Z,16.90
2019-05-20T08:26:32.179Z,14.70
2019-05-20T08:27:32.160Z,15.10
2019-05-20T08:28:32.160Z,15.30
2019-05-20T08:29:32.159Z,16.50
2019-05-20T08:30:32.159Z,16.90
2019-05-20T08:31:32.158Z,15.80
2019-05-20T08:32:32.166Z,14.70
2019-05-20T08:33:32.158Z,15.60
2019-05-20T08:34:32.319Z,14.70
2019-05-20T08:35:32.158Z,16.30
2019-05-20T08:36:32.244Z,15.40
2019-05-20T08:37:44.932Z,16.10
2019-05-20T08:38:32.155Z,15.50
2019-05-20T08:39:32.156Z,14.40
2019-05-20T08:40:32.156Z,15.20
2019-05-20T08:41:32.163Z,14.20
2019-05-20T08:42:32.156Z,14.90
2019-05-20T08:43:32.159Z,15.70
2019-05-20T08:44:32.273Z,13.60
2019-05-20T08:45:32.157Z,16.00
2019-05-20T08:46:32.155Z,13.60
2019-05-20T08:47:33.003Z,15.00
2019-05-20T08:48:32.157Z,15.90
2019-05-20T08:49:32.163Z,15.50
2019-05-20T08:50:32.155Z,14.00
2019-05-20T08:51:32.191Z,15.00
2019-05-20T08:52:32.166Z,15.40
2019-05-20T08:53:32.153Z,13.60
2019-05-20T08:54:32.172Z,14.60
2019-05-20T08:55:32.177Z,15.30
2019-05-20T08:56:32.163Z,15.00
2019-05-20T08:57:32.153Z,14.90
2019-05-20T08:58:32.153Z,16.30
2019-05-20T08:59:32.151Z,15.00
2019-05-20T09:00:32.168Z,13.70
2019-05-20T09:01:32.154Z,15.80
2019-05-20T09:02:32.223Z,14.60
2019-05-20T09:03:32.151Z,15.50
2019-05-20T09:04:32.156Z,15.90
2019-05-20T09:05:32.175Z,15.30
2019-05-20T09:06:32.173Z,14.90
2019-05-20T09:07:32.162Z,15.30
2019-05-20T09:08:32.154Z,14.80
2019-05-20T09:09:32.225Z,16.00
2019-05-20T09:10:32.153Z,14.90
2019-05-20T09:11:32.159Z,14.40
2019-05-20T09:12:32.152Z,13.20
2019-05-20T09:13:32.191Z,14.60
2019-05-20T09:14:32.151Z,13.40
2019-05-20T09:15:32.205Z,15.00
2019-05-20T09:16:32.154Z,14.40
2019-05-20T09:17:32.168Z,13.80
2019-05-20T09:18:32.385Z,14.70
2019-05-20T09:19:32.153Z,15.00
2019-05-20T09:20:32.155Z,13.40
2019-05-20T09:21:32.152Z,13.90
2019-05-20T09:22:32.216Z,13.30
2019-05-20T09:23:32.151Z,14.10
2019-05-20T09:24:32.193Z,13.50
2019-05-20T09:25:32.179Z,15.00
2019-05-20T09:26:32.153Z,14.50
2019-05-20T09:27:32.152Z,14.70
2019-05-20T09:28:32.155Z,14.60
2019-05-20T09:29:32.154Z,16.00
2019-05-20T09:30:32.163Z,14.70
2019-05-20T09:31:32.162Z,13.90
2019-05-20T09:32:32.156Z,13.70
2019-05-20T09:33:32.157Z,13.70
2019-05-20T09:34:32.158Z,13.30
2019-05-20T09:35:32.178Z,13.80
2019-05-20T09:36:32.160Z,13.80
2019-05-20T09:37:32.160Z,14.30
2019-05-20T09:38:32.175Z,13.80
2019-05-20T09:39:32.167Z,13.40
2019-05-20T09:40:32.166Z,12.40
2019-05-20T09:41:32.176Z,14.50
2019-05-20T09:42:32.162Z,14.50
2019-05-20T09:43:32.167Z,13.40
2019-05-20T09:44:32.163Z,13.80
2019-05-20T09:45:32.164Z,14.20
2019-05-20T09:46:32.166Z,13.80
2019-05-20T09:47:32.182Z,14.50
2019-05-20T09:48:32.175Z,15.10
2019-05-20T09:49:32.173Z,15.50
2019-05-20T09:50:32.171Z,14.80
2019-05-20T09:51:32.171Z,12.90
2019-05-20T09:52:32.174Z,12.90
2019-05-20T09:53:32.213Z,14.30
2019-05-20T09:54:32.173Z,14.10
2019-05-20T09:55:32.237Z,14.30
2019-05-20T09:56:32.178Z,13.50
2019-05-20T09:57:32.179Z,13.30
2019-05-20T09:58:32.186Z,14.50
2019-05-20T09:59:42.769Z,15.20
2019-05-20T10:00:32.182Z,14.20
2019-05-20T10:01:32.182Z,14.30
2019-05-20T10:02:37.506Z,14.70
2019-05-20T10:03:32.184Z,14.60
2019-05-20T10:04:32.185Z,14.40
2019-05-20T10:05:32.189Z,14.60
2019-05-20T10:06:32.188Z,15.60
2019-05-20T10:07:32.188Z,14.20
2019-05-20T10:08:39.060Z,13.70
2019-05-20T10:09:32.191Z,14.00
2019-05-20T10:10:32.205Z,14.20
2019-05-20T10:11:32.192Z,14.90
2019-05-20T10:12:45.616Z,13.60
2019-05-20T10:13:32.196Z,13.70
2019-05-20T10:14:32.198Z,15.60
2019-05-20T10:15:32.203Z,15.00
2019-05-20T10:16:32.199Z,13.60
2019-05-20T10:17:32.201Z,14.50
2019-05-20T10:18:37.398Z,14.10
2019-05-20T10:19:32.202Z,14.70
2019-05-20T10:20:32.211Z,13.80
2019-05-20T10:21:32.207Z,13.30
2019-05-20T10:22:32.281Z,13.80
2019-05-20T10:23:32.242Z,13.80
2019-05-20T10:24:32.209Z,14.50
2019-05-20T10:25:32.300Z,13.60
2019-05-20T10:26:32.211Z,13.80
2019-05-20T10:27:32.219Z,13.40
2019-05-20T10:28:32.217Z,14.60
2019-05-20T10:29:32.217Z,14.90
2019-05-20T10:30:32.215Z,14.00
2019-05-20T10:31:32.369Z,14.30
2019-05-20T10:32:32.220Z,14.50
2019-05-20T10:33:32.285Z,13.60
2019-05-20T10:34:32.221Z,13.80
2019-05-20T10:35:32.223Z,14.60
2019-05-20T10:36:32.224Z,13.10
2019-05-20T10:37:32.225Z,14.40
2019-05-20T10:38:32.227Z,13.60
2019-05-20T10:39:32.227Z,14.10
2019-05-20T10:40:32.257Z,13.80
2019-05-20T10:41:32.230Z,14.30
2019-05-20T10:42:32.232Z,13.70
2019-05-20T10:43:32.235Z,13.00
2019-05-20T10:44:32.235Z,13.30
2019-05-20T10:45:32.236Z,14.30
2019-05-20T10:46:32.236Z,13.40
2019-05-20T10:47:32.237Z,13.00
2019-05-20T10:48:32.240Z,14.50
2019-05-20T10:49:32.241Z,13.10
2019-05-20T10:50:32.241Z,12.70
2019-05-20T10:51:32.246Z,14.40
2019-05-20T10:52:32.243Z,14.50
2019-05-20T10:53:32.246Z,14.30
2019-05-20T10:54:32.245Z,12.70
2019-05-20T10:55:32.315Z,14.50
2019-05-20T10:56:32.248Z,13.10
2019-05-20T10:57:32.251Z,12.90
2019-05-20T10:58:32.252Z,13.80
2019-05-20T10:59:32.253Z,14.30
2019-05-20T11:00:32.255Z,13.70
2019-05-20T11:01:32.263Z,15.00
2019-05-20T11:02:32.261Z,13.30
2019-05-20T11:03:32.257Z,13.00
2019-05-20T11:04:35.294Z,14.10
2019-05-20T11:05:32.262Z,13.50
2019-05-20T11:06:32.265Z,13.20
2019-05-20T11:07:32.280Z,12.80
2019-05-20T11:08:32.268Z,14.30
2019-05-20T11:09:32.269Z,14.60
2019-05-20T11:10:32.269Z,14.20
2019-05-20T11:11:32.270Z,13.80
2019-05-20T11:12:32.271Z,15.50
2019-05-20T11:13:32.274Z,14.40
2019-05-20T11:14:32.276Z,14.40
2019-05-20T11:15:32.288Z,13.60
2019-05-20T11:16:32.278Z,13.30
2019-05-20T11:17:32.300Z,15.00
2019-05-20T11:18:32.293Z,14.60
2019-05-20T11:19:32.295Z,14.40
2019-05-20T11:20:32.297Z,13.60
2019-05-20T11:21:32.286Z,14.00
2019-05-20T11:22:32.292Z,15.00
2019-05-20T11:23:32.288Z,15.40
2019-05-20T11:24:32.290Z,14.20
2019-05-20T11:25:32.293Z,15.00
2019-05-20T11:26:32.296Z,14.80
2019-05-20T11:27:32.296Z,15.30
2019-05-20T11:28:32.297Z,14.00
2019-05-20T11:29:32.303Z,15.20
2019-05-20T11:30:32.299Z,15.30
2019-05-20T11:31:32.301Z,15.50
2019-05-20T11:32:32.302Z,14.10
2019-05-20T11:33:32.306Z,14.70
2019-05-20T11:34:32.314Z,15.20
2019-05-20T11:35:32.309Z,15.80
2019-05-20T11:36:32.312Z,14.40
2019-05-20T11:37:32.312Z,14.80
2019-05-20T11:38:32.315Z,14.90
2019-05-20T11:39:34.142Z,14.50
2019-05-20T11:40:32.316Z,14.50
2019-05-20T11:41:53.440Z,13.80
2019-05-20T11:42:32.319Z,14.20
2019-05-20T11:43:32.322Z,13.80
2019-05-20T11:44:32.324Z,15.20
2019-05-20T11:45:32.326Z,15.80
2019-05-20T11:46:32.327Z,14.00
2019-05-20T11:47:32.329Z,14.90
2019-05-20T11:48:32.331Z,15.10
2019-05-20T11:49:32.339Z,15.00
2019-05-20T11:50:32.395Z,15.00
2019-05-20T11:51:32.336Z,15.50
2019-05-20T11:52:32.354Z,14.40
2019-05-20T11:53:32.341Z,15.40
2019-05-20T11:54:32.354Z,14.20
2019-05-20T11:55:32.354Z,15.30
2019-05-20T11:56:32.356Z,15.10
2019-05-20T11:57:32.356Z,15.30
2019-05-20T11:58:32.351Z,14.00
2019-05-20T11:59:32.353Z,15.10
2019-05-20T12:00:32.356Z,14.70
2019-05-20T12:01:32.368Z,15.10
2019-05-20T12:02:32.388Z,14.20
2019-05-20T12:03:32.363Z,14.30
2019-05-20T12:04:32.363Z,14.60
2019-05-20T12:05:32.365Z,15.20
2019-05-20T12:06:32.366Z,15.90
2019-05-20T12:07:32.373Z,15.00
2019-05-20T12:08:32.373Z,15.00
2019-05-20T12:09:46.612Z,15.90
2019-05-20T12:10:32.377Z,15.50
2019-05-20T12:11:32.444Z,15.30
2019-05-20T12:12:32.387Z,14.90
2019-05-20T12:13:32.384Z,15.20
2019-05-20T12:14:32.385Z,16.30
2019-05-20T12:15:32.388Z,15.20
2019-05-20T12:16:32.390Z,15.20
2019-05-20T12:17:32.398Z,15.20
2019-05-20T12:18:32.394Z,15.50
2019-05-20T12:19:32.397Z,14.40
2019-05-20T12:20:32.399Z,15.40
2019-05-20T12:21:32.403Z,14.20
2019-05-20T12:22:32.404Z,15.10
2019-05-20T12:23:32.410Z,15.30
2019-05-20T12:24:32.411Z,15.70
2019-05-20T12:25:32.412Z,15.40
2019-05-20T12:26:32.416Z,15.20
2019-05-20T12:27:32.418Z,15.40
2019-05-20T12:28:32.419Z,15.10
2019-05-20T12:29:32.427Z,15.80
2019-05-20T12:30:32.430Z,15.00
2019-05-20T12:31:32.436Z,15.10
2019-05-20T12:32:32.433Z,14.70
2019-05-20T12:33:32.435Z,15.50
2019-05-20T12:34:32.442Z,15.20
2019-05-20T12:35:32.445Z,14.90
2019-05-20T12:36:32.445Z,15.60
2019-05-20T12:37:32.448Z,15.20
2019-05-20T12:38:32.452Z,14.20
2019-05-20T12:39:32.483Z,14.50
2019-05-20T12:40:32.467Z,15.20
2019-05-20T12:41:32.502Z,14.70
2019-05-20T12:42:32.462Z,15.20
2019-05-20T12:43:32.469Z,16.40
2019-05-20T12:44:32.471Z,15.20
2019-05-20T12:45:32.476Z,15.40
2019-05-20T12:46:32.475Z,15.00
2019-05-20T12:47:32.482Z,14.80
2019-05-20T12:48:32.485Z,15.00
2019-05-20T12:49:32.536Z,14.10
2019-05-20T12:50:32.491Z,15.30
2019-05-20T12:51:32.493Z,15.10
2019-05-20T12:52:32.507Z,15.60
2019-05-20T12:53:32.499Z,15.50
2019-05-20T12:54:32.503Z,15.80